Terminal Aerodrome Forecast
Issued by NWS Twin Cities, MN

Home | Current Version | Previous Version | Text Only | Print | Product List | Glossary Off
Versions: 1 2 3 4 5 6 7 8 9 10 11 12 13 14 15 16 17 18 19 20 21

000
FTUS43 KMPX 290500
TAFSTC
TAF
KSTC 290530Z 2906/3006 35012KT P6SM VCSH SCT008 OVC012
     FM291200 04011KT P6SM BKN008 OVC015
     FM291800 05010KT P6SM BKN020 OVC035
     FM292100 07010KT P6SM SCT040 BKN100=

USA.gov is the U.S. government's official web portal to all federal, state and local government web resources and services.